TimeCDT,TemperatureF,Dew PointF,Humidity,Sea Level PressureIn,VisibilityMPH,Wind Direction,Wind SpeedMPH,Gust SpeedMPH,PrecipitationIn,Events,Conditions,WindDirDegrees,DateUTC
12:53 AM,73.0,71.1,93,30.13,9.0,SE,5.8,-,N/A,,Clear,140,2012-10-13 05:53:00
1:53 AM,73.9,72.0,93,30.12,9.0,SE,8.1,-,N/A,,Partly Cloudy,140,2012-10-13 06:53:00
2:53 AM,73.9,72.0,93,30.10,9.0,SSE,8.1,-,N/A,,Clear,150,2012-10-13 07:53:00
3:53 AM,75.0,72.0,90,30.09,8.0,SSE,10.4,-,N/A,,Clear,160,2012-10-13 08:53:00
4:53 AM,75.0,72.0,90,30.09,8.0,SSE,9.2,-,N/A,,Clear,150,2012-10-13 09:53:00
5:53 AM,75.0,72.0,90,30.10,9.0,SSE,9.2,-,N/A,,Clear,150,2012-10-13 10:53:00
6:53 AM,75.0,72.0,90,30.10,10.0,SE,9.2,-,N/A,,Clear,140,2012-10-13 11:53:00
7:37 AM,75.2,71.6,89,30.11,8.0,SE,4.6,-,N/A,,Overcast,130,2012-10-13 12:37:00
7:53 AM,75.0,72.0,90,30.12,8.0,ESE,5.8,-,N/A,,Mostly Cloudy,120,2012-10-13 12:53:00
8:04 AM,75.2,71.6,89,30.11,8.0,SE,6.9,-,N/A,,Scattered Clouds,140,2012-10-13 13:04:00
8:53 AM,79.0,73.0,82,30.12,9.0,SSE,9.2,-,N/A,,Partly Cloudy,150,2012-10-13 13:53:00
9:53 AM,80.6,71.6,74,30.12,10.0,SSE,16.1,-,N/A,,Partly Cloudy,150,2012-10-13 14:53:00
10:28 AM,82.4,71.6,70,30.13,10.0,South,19.6,24.2,N/A,,Overcast,170,2012-10-13 15:28:00
10:38 AM,82.4,69.8,66,30.13,10.0,South,15.0,23.0,N/A,,Mostly Cloudy,170,2012-10-13 15:38:00
10:53 AM,82.0,70.0,67,30.13,10.0,South,16.1,24.2,N/A,,Scattered Clouds,170,2012-10-13 15:53:00
11:02 AM,82.4,69.8,66,30.13,10.0,South,13.8,24.2,N/A,,Mostly Cloudy,170,2012-10-13 16:02:00
11:53 AM,84.9,70.0,61,30.12,10.0,South,17.3,23.0,N/A,,Mostly Cloudy,170,2012-10-13 16:53:00
12:00 PM,84.2,69.8,62,30.12,10.0,SSE,17.3,23.0,N/A,,Scattered Clouds,160,2012-10-13 17:00:00
12:53 PM,84.9,69.1,59,30.11,10.0,South,16.1,24.2,N/A,,Partly Cloudy,170,2012-10-13 17:53:00
1:53 PM,84.0,70.0,63,30.07,10.0,South,17.3,23.0,N/A,,Mostly Cloudy,170,2012-10-13 18:53:00
2:53 PM,84.9,70.0,61,30.05,10.0,SSE,15.0,21.9,N/A,,Mostly Cloudy,160,2012-10-13 19:53:00
3:53 PM,84.0,69.1,61,30.04,10.0,South,17.3,23.0,N/A,,Clear,170,2012-10-13 20:53:00
4:53 PM,82.0,70.0,67,30.03,10.0,SSE,12.7,-,N/A,,Scattered Clouds,160,2012-10-13 21:53:00
5:53 PM,80.1,70.0,71,30.01,10.0,SSE,12.7,20.7,N/A,,Scattered Clouds,160,2012-10-13 22:53:00
6:53 PM,77.0,69.8,78,30.01,10.0,SSE,10.4,-,N/A,,Clear,160,2012-10-13 23:53:00
7:53 PM,77.0,72.0,84,30.03,10.0,SSE,10.4,-,N/A,,Clear,160,2012-10-14 00:53:00
8:53 PM,77.0,71.6,83,30.05,10.0,SSE,9.2,-,N/A,,Partly Cloudy,160,2012-10-14 01:53:00
9:53 PM,77.0,73.0,88,30.04,10.0,SSE,6.9,-,N/A,,Scattered Clouds,160,2012-10-14 02:53:00
10:53 PM,77.0,72.0,84,30.03,10.0,SSE,12.7,-,N/A,,Clear,160,2012-10-14 03:53:00